Time;durP1;ratioP1;P1;durP2;ratioP2;P2;SDS_P1;SDS_P2;PMS_P1;PMS_P2;Temp;Humidity;BMP_temperature;BMP_pressure;BME280_temperature;BME280_humidity;BME280_pressure;Samples;Min_cycle;Max_cycle;Signal;HPM_P1;HPM_P2
2022/01/23 00:02:17;;;;;;;8.20;6.60;;;;;;;3.41;96.23;99761.50;5037470;28;20493;-71
2022/01/23 00:04:44;;;;;;;10.27;6.63;;;;;;;3.50;95.13;99767.75;5038050;28;20201;-68
2022/01/23 00:07:13;;;;;;;9.70;6.50;;;;;;;3.54;94.26;99756.84;5037423;28;20194;-67
2022/01/23 00:09:40;;;;;;;8.27;6.50;;;;;;;3.53;94.41;99751.72;5037468;28;20190;-67
2022/01/23 00:12:11;;;;;;;7.97;6.77;;;;;;;3.53;94.35;99756.97;5037587;28;20400;-72
2022/01/23 00:17:23;;;;;;;7.73;6.60;;;;;;;3.48;95.05;99751.28;5037455;28;20189;-68
2022/01/23 00:19:54;;;;;;;9.07;6.80;;;;;;;3.50;95.49;99762.47;5037463;28;20190;-68
2022/01/23 00:22:26;;;;;;;7.80;7.00;;;;;;;3.44;95.08;99757.78;5037495;28;20190;-70
2022/01/23 00:30:26;;;;;;;7.80;6.40;;;;;;;3.42;95.54;99759.69;5037071;28;20328;-70
2022/01/23 00:32:53;;;;;;;7.60;6.27;;;;;;;3.41;96.03;99752.75;5037256;28;20222;-71
2022/01/23 00:35:20;;;;;;;7.70;6.80;;;;;;;3.36;96.41;99760.22;5036907;28;20190;-71
2022/01/23 00:37:46;;;;;;;7.73;6.73;;;;;;;3.32;97.15;99761.44;5037223;28;20198;-72
2022/01/23 00:40:13;;;;;;;8.73;7.23;;;;;;;3.37;96.93;99759.25;5036978;28;20218;-72
2022/01/23 00:42:39;;;;;;;8.30;7.27;;;;;;;3.34;97.14;99760.34;5037146;28;20186;-68
2022/01/23 00:45:24;;;;;;;8.73;6.77;;;;;;;3.35;96.98;99753.31;5037147;28;20190;-71
2022/01/23 00:47:53;;;;;;;7.43;6.63;;;;;;;3.34;97.29;99749.03;5037004;28;20201;-70
2022/01/23 00:50:20;;;;;;;7.67;6.67;;;;;;;3.35;96.58;99754.13;5036919;28;20288;-72
2022/01/23 00:52:46;;;;;;;8.93;7.17;;;;;;;3.36;97.62;99742.66;5036890;28;20236;-72
2022/01/23 00:55:13;;;;;;;9.90;7.30;;;;;;;3.37;97.42;99743.47;5036922;28;20194;-72
2022/01/23 00:57:39;;;;;;;7.53;6.63;;;;;;;3.39;98.10;99744.19;5036862;28;20186;-68
2022/01/23 01:00:07;;;;;;;10.00;7.50;;;;;;;3.37;97.85;99744.31;5036787;28;20226;-68
2022/01/23 01:02:34;;;;;;;8.27;7.30;;;;;;;3.40;97.82;99754.56;5036878;28;20186;-72
2022/01/23 01:05:00;;;;;;;8.47;7.00;;;;;;;3.40;98.03;99753.72;5036786;28;20201;-70
2022/01/23 01:07:27;;;;;;;10.00;6.93;;;;;;;3.40;98.64;99761.63;5036502;28;20608;-68
2022/01/23 01:09:59;;;;;;;11.23;7.13;;;;;;;3.43;97.99;99762.19;5036516;28;20221;-68
2022/01/23 01:12:30;;;;;;;10.27;8.20;;;;;;;3.43;96.94;99746.41;5036323;28;20520;-66
2022/01/23 01:15:22;;;;;;;9.03;7.70;;;;;;;3.38;97.94;99763.53;5036359;28;20202;-65
2022/01/23 01:31:31;;;;;;;8.93;7.90;;;;;;;3.50;98.01;99749.34;5036314;28;20244;-72
2022/01/23 01:34:04;;;;;;;9.03;7.97;;;;;;;3.45;98.29;99741.03;5037096;28;20263;-72
2022/01/23 01:36:36;;;;;;;10.80;8.30;;;;;;;3.42;99.06;99750.00;5036700;28;20489;-72
2022/01/23 01:39:05;;;;;;;10.63;9.03;;;;;;;3.44;98.86;99748.06;5036391;28;20194;-72
2022/01/23 01:41:31;;;;;;;12.93;8.73;;;;;;;3.41;99.07;99750.13;5036365;28;20242;-72
2022/01/23 01:43:59;;;;;;;11.97;8.83;;;;;;;3.36;100.00;99747.06;5036512;28;20190;-72
2022/01/23 01:46:26;;;;;;;10.90;8.30;;;;;;;3.38;100.00;99753.84;5036218;28;20194;-72
2022/01/23 01:48:52;;;;;;;12.27;9.40;;;;;;;3.37;99.57;99760.09;5035905;28;20190;-72
2022/01/23 01:51:19;;;;;;;13.53;10.07;;;;;;;3.52;98.54;99750.06;5035797;28;20229;-70
2022/01/23 01:53:51;;;;;;;12.83;10.17;;;;;;;3.53;97.47;99752.53;5040044;28;20206;-70
2022/01/23 01:56:17;;;;;;;12.73;9.77;;;;;;;3.45;99.33;99755.00;5040274;28;20501;-70
2022/01/23 01:59:13;;;;;;;12.33;10.07;;;;;;;3.51;97.54;99761.50;5040056;28;20202;-70
2022/01/23 02:09:51;;;;;;;11.63;9.37;;;;;;;3.48;98.13;99748.66;5039904;28;20494;-70
2022/01/23 02:12:52;;;;;;;13.97;10.83;;;;;;;3.42;98.62;99744.75;5039887;28;20214;-71
2022/01/23 02:18:00;;;;;;;13.10;10.00;;;;;;;3.51;97.24;99741.31;5038477;28;20198;-70
2022/01/23 02:23:41;;;;;;;13.83;10.87;;;;;;;3.43;98.05;99741.16;5001790;28;20196;-70
2022/01/23 02:50:54;;;;;;;16.67;11.97;;;;;;;3.21;100.00;99712.44;5039267;28;20622;-68
2022/01/23 02:53:37;;;;;;;15.50;12.13;;;;;;;3.20;100.00;99704.69;5039350;28;20233;-68
2022/01/23 02:56:07;;;;;;;15.30;11.63;;;;;;;3.20;100.00;99702.88;5039201;28;20244;-68
2022/01/23 02:58:46;;;;;;;16.00;12.23;;;;;;;3.22;100.00;99695.72;5039112;28;20252;-72
2022/01/23 03:01:16;;;;;;;16.57;12.90;;;;;;;3.24;100.00;99714.78;5039015;28;20592;-72
2022/01/23 03:03:46;;;;;;;14.47;12.27;;;;;;;3.25;100.00;99720.91;5037715;28;20194;-72
2022/01/23 03:06:24;;;;;;;14.57;11.63;;;;;;;3.22;100.00;99703.59;5038929;28;20210;-73
2022/01/23 03:09:21;;;;;;;15.87;11.93;;;;;;;3.20;100.00;99709.94;5038871;28;20200;-73
2022/01/23 03:12:06;;;;;;;15.00;12.13;;;;;;;3.22;100.00;99726.41;5038275;28;20295;-72
2022/01/23 03:14:46;;;;;;;14.27;11.93;;;;;;;3.22;100.00;99716.75;5038846;28;20279;-72
2022/01/23 03:25:49;;;;;;;17.03;11.73;;;;;;;3.18;100.00;99746.88;5038370;28;20262;-70
2022/01/23 03:28:21;;;;;;;16.17;11.80;;;;;;;3.16;100.00;99742.72;5039001;28;20507;-70
2022/01/23 03:30:54;;;;;;;15.70;11.60;;;;;;;3.17;100.00;99745.19;5038145;28;20222;-70
2022/01/23 03:33:22;;;;;;;15.90;12.57;;;;;;;3.13;100.00;99738.56;5038369;28;20210;-70
2022/01/23 03:35:48;;;;;;;13.73;12.27;;;;;;;3.17;100.00;99749.63;5038417;28;20206;-70
2022/01/23 03:38:14;;;;;;;15.20;11.90;;;;;;;3.15;100.00;99751.53;5038414;28;20190;-70
2022/01/23 03:40:41;;;;;;;15.17;12.07;;;;;;;3.15;100.00;99759.41;5038488;28;20225;-70
2022/01/23 03:43:10;;;;;;;17.27;12.83;;;;;;;3.18;100.00;99751.28;5037966;28;20187;-70
2022/01/23 03:46:09;;;;;;;18.20;12.80;;;;;;;3.17;100.00;99755.69;5037921;28;20198;-70
2022/01/23 03:51:19;;;;;;;16.37;12.83;;;;;;;3.15;100.00;99748.91;5037775;28;20292;-70
2022/01/23 03:53:45;;;;;;;15.97;13.13;;;;;;;3.19;100.00;99750.31;5038020;28;20197;-70
2022/01/23 03:56:14;;;;;;;15.33;12.30;;;;;;;3.16;100.00;99754.03;5037949;28;20202;-72
2022/01/23 03:58:40;;;;;;;15.73;11.87;;;;;;;3.18;100.00;99760.00;5038087;28;20233;-73
2022/01/23 04:01:07;;;;;;;16.37;12.50;;;;;;;3.15;100.00;99767.31;5037426;28;20225;-72
2022/01/23 04:03:36;;;;;;;15.03;12.93;;;;;;;3.19;100.00;99768.72;5037769;28;20204;-73
2022/01/23 04:06:02;;;;;;;18.40;13.37;;;;;;;3.18;100.00;99761.81;5037463;28;20676;-72
2022/01/23 04:08:29;;;;;;;17.50;12.90;;;;;;;3.18;100.00;99764.41;5037346;28;20202;-72
2022/01/23 04:10:55;;;;;;;16.10;12.63;;;;;;;3.16;100.00;99755.84;5037306;28;20336;-72
2022/01/23 04:13:27;;;;;;;17.40;12.73;;;;;;;3.20;100.00;99757.25;5037277;28;20233;-72
2022/01/23 04:16:09;;;;;;;16.70;13.37;;;;;;;3.17;100.00;99742.56;5037324;28;20275;-72
2022/01/23 04:31:41;;;;;;;16.33;12.83;;;;;;;3.12;100.00;99746.56;5033436;28;20221;-70
2022/01/23 04:32:33;;;;;;;17.57;12.87;;;;;;;3.10;100.00;99748.47;5037005;28;20290;-68
2022/01/23 04:35:15;;;;;;;18.60;13.97;;;;;;;3.11;100.00;99739.66;5036830;28;20623;-68
2022/01/23 04:46:01;;;;;;;17.07;13.60;;;;;;;3.11;100.00;99737.03;5036725;28;20285;-65
2022/01/23 04:59:39;;;;;;;19.97;14.93;;;;;;;3.07;100.00;99754.00;5036614;28;20173;-66
2022/01/23 05:02:19;;;;;;;22.00;14.73;;;;;;;3.07;100.00;99746.94;5036513;28;20660;-66
2022/01/23 05:04:46;;;;;;;19.07;14.37;;;;;;;3.12;100.00;99741.31;5037412;28;20198;-70
2022/01/23 05:07:15;;;;;;;17.93;14.80;;;;;;;3.11;100.00;99743.09;5036673;28;20273;-68
2022/01/23 05:09:41;;;;;;;20.17;14.73;;;;;;;3.12;100.00;99743.94;5036612;28;20251;-68
2022/01/23 05:12:12;;;;;;;22.57;14.67;;;;;;;3.14;100.00;99740.22;5036586;28;20213;-68
2022/01/23 05:14:45;;;;;;;18.73;14.00;;;;;;;3.14;100.00;99745.47;5037012;28;20197;-66
2022/01/23 05:17:14;;;;;;;19.57;14.73;;;;;;;3.16;100.00;99747.97;5036403;28;20217;-66
2022/01/23 05:19:42;;;;;;;19.30;14.90;;;;;;;3.25;100.00;99758.50;5036737;28;20210;-70
2022/01/23 05:22:27;;;;;;;21.17;15.87;;;;;;;3.20;100.00;99765.16;5036334;28;20261;-70
2022/01/23 05:24:57;;;;;;;21.60;14.87;;;;;;;3.20;100.00;99757.25;5036815;28;20593;-68
2022/01/23 05:27:27;;;;;;;17.70;14.43;;;;;;;3.19;100.00;99758.19;5035888;28;20229;-66
2022/01/23 05:29:54;;;;;;;21.00;15.37;;;;;;;3.18;100.00;99756.53;5036431;28;20241;-67
2022/01/23 05:32:23;;;;;;;21.53;15.20;;;;;;;3.17;100.00;99762.75;5036106;28;20640;-70
2022/01/23 05:34:49;;;;;;;20.57;15.93;;;;;;;3.17;100.00;99762.75;5036074;28;20564;-70
2022/01/23 05:37:16;;;;;;;20.03;15.50;;;;;;;3.13;100.00;99759.56;5036243;28;20252;-70
2022/01/23 05:39:43;;;;;;;21.50;15.63;;;;;;;3.14;100.00;99763.88;5036273;28;20205;-70
2022/01/23 05:42:10;;;;;;;19.70;14.80;;;;;;;3.21;100.00;99766.81;5036265;28;20281;-70
2022/01/23 05:44:38;;;;;;;22.30;15.37;;;;;;;3.18;100.00;99762.63;5036279;28;20206;-66
2022/01/23 05:47:06;;;;;;;21.17;15.40;;;;;;;3.19;100.00;99758.19;5036009;28;20221;-66
2022/01/23 05:49:32;;;;;;;20.63;14.43;;;;;;;3.16;100.00;99751.41;5035951;28;20625;-65
2022/01/23 05:51:59;;;;;;;20.13;16.03;;;;;;;3.21;100.00;99756.28;5036046;28;20257;-66
2022/01/23 05:54:26;;;;;;;20.40;14.70;;;;;;;3.19;100.00;99753.78;5036217;28;20194;-66
2022/01/23 05:56:52;;;;;;;23.37;15.23;;;;;;;3.21;100.00;99758.91;5036269;28;20201;-68
2022/01/23 05:59:20;;;;;;;19.73;15.07;;;;;;;3.19;100.00;99768.72;5035886;28;20503;-68
2022/01/23 06:01:47;;;;;;;19.17;13.90;;;;;;;3.21;100.00;99769.44;5035777;28;20647;-70
2022/01/23 06:04:14;;;;;;;19.30;15.10;;;;;;;3.21;100.00;99777.31;5036141;28;20206;-70
2022/01/23 06:06:40;;;;;;;18.37;14.27;;;;;;;3.23;100.00;99776.22;5036153;28;20194;-70
2022/01/23 06:09:07;;;;;;;20.10;14.33;;;;;;;3.25;100.00;99784.78;5035715;28;20210;-68
2022/01/23 06:11:33;;;;;;;21.63;16.07;;;;;;;3.24;100.00;99784.91;5035748;28;20252;-68
2022/01/23 06:13:59;;;;;;;22.07;14.90;;;;;;;3.26;100.00;99790.91;5035953;28;20226;-66
2022/01/23 06:16:26;;;;;;;21.13;15.37;;;;;;;3.26;100.00;99791.69;5036023;28;20198;-70
2022/01/23 06:18:52;;;;;;;23.27;15.73;;;;;;;3.24;100.00;99792.81;5036024;28;20208;-70
2022/01/23 06:21:20;;;;;;;21.60;15.50;;;;;;;3.21;100.00;99793.91;5035963;28;20233;-71
2022/01/23 06:23:48;;;;;;;19.37;15.03;;;;;;;3.20;100.00;99788.78;5035923;28;20604;-70
2022/01/23 06:26:17;;;;;;;22.10;16.47;;;;;;;3.14;100.00;99777.00;5035934;28;20214;-70
2022/01/23 06:29:01;;;;;;;21.37;15.40;;;;;;;3.13;100.00;99782.38;5035995;28;20195;-69
2022/01/23 06:31:27;;;;;;;22.17;15.63;;;;;;;3.13;100.00;99790.25;5035919;28;20233;-68
2022/01/23 06:33:53;;;;;;;19.03;15.37;;;;;;;3.10;100.00;99794.00;5035863;28;20225;-69
2022/01/23 06:36:20;;;;;;;21.93;16.60;;;;;;;3.19;100.00;99800.25;5035855;28;20235;-68
2022/01/23 06:38:46;;;;;;;20.37;15.50;;;;;;;3.43;100.00;99799.00;5037528;28;20208;-70
2022/01/23 06:41:13;;;;;;;19.93;15.70;;;;;;;3.29;100.00;99807.22;5039320;28;20222;-71
2022/01/23 06:43:39;;;;;;;26.90;16.73;;;;;;;3.27;100.00;99803.06;5039231;28;20198;-71
2022/01/23 06:46:06;;;;;;;22.57;16.73;;;;;;;3.23;100.00;99807.75;5038921;28;20204;-70
2022/01/23 06:48:32;;;;;;;26.30;16.70;;;;;;;3.19;100.00;99795.00;5039258;28;20197;-70
2022/01/23 06:50:58;;;;;;;22.90;16.53;;;;;;;3.15;100.00;99801.47;5039107;28;20529;-70
2022/01/23 06:53:25;;;;;;;22.83;16.77;;;;;;;3.19;100.00;99801.09;5038953;28;20225;-68
2022/01/23 06:55:51;;;;;;;24.57;16.00;;;;;;;3.18;100.00;99803.84;5039029;28;20209;-68
2022/01/23 06:58:18;;;;;;;24.63;17.00;;;;;;;3.19;100.00;99802.88;5038886;28;20206;-68
2022/01/23 07:00:44;;;;;;;20.07;16.13;;;;;;;3.15;100.00;99820.72;5038981;28;20250;-67
2022/01/23 07:03:12;;;;;;;22.60;16.90;;;;;;;3.22;100.00;99815.78;5039017;28;20186;-68
2022/01/23 07:05:38;;;;;;;18.43;15.27;;;;;;;3.21;100.00;99827.25;5038938;28;20206;-68
2022/01/23 07:08:05;;;;;;;24.63;17.33;;;;;;;3.14;100.00;99823.47;5038868;28;20229;-69
2022/01/23 07:10:32;;;;;;;25.00;16.93;;;;;;;3.20;100.00;99826.41;5038396;28;20240;-69
2022/01/23 07:12:58;;;;;;;25.23;17.00;;;;;;;3.18;100.00;99833.59;5038681;28;20222;-69
2022/01/23 07:15:25;;;;;;;24.67;16.43;;;;;;;3.17;100.00;99834.53;5038431;28;20198;-69
2022/01/23 07:17:52;;;;;;;22.20;16.00;;;;;;;3.17;100.00;99836.34;5038732;28;20216;-68
2022/01/23 07:20:18;;;;;;;25.70;17.20;;;;;;;3.17;100.00;99841.59;5038638;28;20222;-67
2022/01/23 07:22:45;;;;;;;24.77;17.03;;;;;;;3.16;100.00;99842.56;5038646;28;20194;-68
2022/01/23 07:25:12;;;;;;;24.40;17.13;;;;;;;3.15;100.00;99852.25;5038335;28;20619;-68
2022/01/23 07:27:44;;;;;;;24.43;16.90;;;;;;;3.18;100.00;99845.91;5038333;28;20597;-69
2022/01/23 07:30:23;;;;;;;23.43;16.73;;;;;;;3.16;100.00;99845.22;5038576;28;20301;-69
2022/01/23 07:32:50;;;;;;;22.80;16.90;;;;;;;3.25;100.00;99847.06;5038380;28;20232;-69
2022/01/23 07:35:16;;;;;;;23.30;17.13;;;;;;;3.23;100.00;99851.59;5038023;28;20605;-68
2022/01/23 07:37:43;;;;;;;29.03;18.83;;;;;;;3.19;100.00;99853.66;5038273;28;20210;-72
2022/01/23 07:40:10;;;;;;;25.97;18.90;;;;;;;3.23;100.00;99852.44;5038451;28;20225;-72
2022/01/23 07:42:36;;;;;;;24.53;18.43;;;;;;;3.23;100.00;99848.97;5038214;28;20190;-72
2022/01/23 07:45:06;;;;;;;27.43;18.20;;;;;;;3.29;100.00;99849.28;5038104;28;20209;-72
2022/01/23 07:47:33;;;;;;;25.63;17.50;;;;;;;3.31;100.00;99860.50;5038135;28;20205;-72
2022/01/23 07:50:00;;;;;;;24.80;18.10;;;;;;;3.36;100.00;99865.38;5037189;28;20226;-72
2022/01/23 07:52:30;;;;;;;23.53;17.23;;;;;;;3.41;100.00;99864.03;5038042;28;20309;-70
2022/01/23 07:54:56;;;;;;;28.97;17.33;;;;;;;3.36;100.00;99860.13;5038007;28;20191;-71
2022/01/23 07:57:23;;;;;;;22.70;18.00;;;;;;;3.34;100.00;99857.59;5037671;28;20198;-71
2022/01/23 07:59:50;;;;;;;26.57;18.27;;;;;;;3.35;100.00;99864.53;5037823;28;20206;-72
2022/01/23 08:02:16;;;;;;;25.43;17.73;;;;;;;3.43;100.00;99875.22;5037784;28;20208;-71
2022/01/23 08:04:42;;;;;;;24.27;18.10;;;;;;;3.49;100.00;99881.78;5037755;28;20202;-71
2022/01/23 08:07:11;;;;;;;25.03;17.73;;;;;;;3.42;100.00;99877.97;5037330;28;20613;-71
2022/01/23 08:09:38;;;;;;;26.47;19.00;;;;;;;3.49;100.00;99880.00;5037564;28;20209;-71
2022/01/23 08:12:05;;;;;;;24.73;18.57;;;;;;;3.58;100.00;99883.63;5037742;28;20191;-72
2022/01/23 08:14:32;;;;;;;26.07;19.00;;;;;;;3.52;100.00;99887.59;5037809;28;20638;-71
2022/01/23 08:16:58;;;;;;;24.50;18.60;;;;;;;3.49;100.00;99887.03;5037527;28;20208;-71
2022/01/23 08:19:24;;;;;;;25.20;19.10;;;;;;;3.53;100.00;99880.56;5037442;28;20213;-72
2022/01/23 08:21:51;;;;;;;24.63;18.10;;;;;;;3.56;100.00;99885.53;5037286;28;20226;-72
2022/01/23 08:24:17;;;;;;;27.37;19.00;;;;;;;3.52;100.00;99892.84;5037457;28;20190;-72
2022/01/23 08:26:43;;;;;;;27.97;18.90;;;;;;;3.51;100.00;99887.72;5037350;28;20209;-68
2022/01/23 08:29:10;;;;;;;27.83;19.60;;;;;;;3.64;100.00;99885.72;5036967;28;20605;-68
2022/01/23 08:31:36;;;;;;;29.40;18.90;;;;;;;3.66;100.00;99884.63;5037307;28;20222;-68
2022/01/23 08:34:03;;;;;;;25.60;18.93;;;;;;;3.73;100.00;99888.41;5037188;28;20221;-68
2022/01/23 08:36:31;;;;;;;26.30;19.27;;;;;;;3.82;100.00;99886.78;5036824;28;20600;-69
2022/01/23 08:39:00;;;;;;;27.30;18.40;;;;;;;3.76;100.00;99888.13;5037154;28;20450;-69
2022/01/23 08:44:11;;;;;;;25.33;18.50;;;;;;;3.86;100.00;99898.69;5037267;28;20169;-71
2022/01/23 08:46:37;;;;;;;23.00;17.87;;;;;;;3.99;100.00;99897.53;5037105;28;20194;-71
2022/01/23 08:49:04;;;;;;;26.93;20.13;;;;;;;3.95;100.00;99895.28;5036560;28;20202;-71
2022/01/23 08:51:30;;;;;;;25.43;19.47;;;;;;;3.86;100.00;99890.81;5036422;28;20637;-71
2022/01/23 08:53:58;;;;;;;27.10;18.83;;;;;;;3.86;100.00;99890.81;5036832;28;20217;-70
2022/01/23 08:56:25;;;;;;;26.83;19.47;;;;;;;3.86;99.65;99888.19;5036843;28;20201;-70
2022/01/23 08:58:51;;;;;;;31.13;19.83;;;;;;;3.96;99.35;99892.53;5036776;28;20515;-70
2022/01/23 09:01:17;;;;;;;26.80;19.83;;;;;;;4.02;98.70;99881.44;5036688;28;20225;-70
2022/01/23 09:03:44;;;;;;;22.27;18.37;;;;;;;4.12;98.88;99886.75;5036715;28;20197;-70
2022/01/23 09:06:10;;;;;;;24.53;17.40;;;;;;;4.16;97.85;99891.59;5036531;28;20282;-70
2022/01/23 09:08:38;;;;;;;26.90;18.47;;;;;;;4.09;96.88;99879.97;5036302;28;20585;-70
2022/01/23 09:11:10;;;;;;;23.23;17.70;;;;;;;4.12;99.08;99865.72;5036146;28;20283;-70
2022/01/23 09:13:52;;;;;;;24.37;18.73;;;;;;;4.21;98.45;99873.59;5036262;28;20256;-70
2022/01/23 09:16:19;;;;;;;21.70;16.87;;;;;;;4.14;97.30;99874.28;5036627;28;20194;-73
2022/01/23 09:18:45;;;;;;;26.20;18.13;;;;;;;4.23;97.57;99874.31;5036179;28;20190;-70
2022/01/23 09:21:12;;;;;;;26.20;19.23;;;;;;;4.33;95.94;99872.53;5035997;28;20226;-70
2022/01/23 09:23:38;;;;;;;25.23;19.27;;;;;;;4.33;96.51;99885.69;5036328;28;20263;-70
2022/01/23 09:26:10;;;;;;;27.80;19.10;;;;;;;4.47;96.98;99873.97;5036451;28;20225;-70
2022/01/23 09:28:40;;;;;;;24.67;18.43;;;;;;;4.51;94.89;99878.81;5036456;28;20191;-70
2022/01/23 09:31:07;;;;;;;26.10;18.93;;;;;;;4.71;94.35;99874.41;5036319;28;20276;-70
2022/01/23 09:33:33;;;;;;;25.60;18.20;;;;;;;4.60;94.06;99883.25;5035935;28;20736;-70
2022/01/23 09:35:59;;;;;;;25.13;19.17;;;;;;;4.67;95.54;99875.63;5036363;28;20500;-70
2022/01/23 09:38:26;;;;;;;21.73;17.87;;;;;;;4.74;94.84;99869.66;5036264;28;20198;-70
2022/01/23 09:40:59;;;;;;;23.33;18.87;;;;;;;4.67;93.24;99875.63;5036098;28;20230;-70
2022/01/23 09:43:28;;;;;;;22.47;18.43;;;;;;;4.58;93.79;99873.81;5035803;28;20600;-71
2022/01/23 09:45:55;;;;;;;24.17;19.27;;;;;;;4.73;93.60;99872.44;5035925;28;20593;-71
2022/01/23 09:48:22;;;;;;;26.10;18.27;;;;;;;4.83;92.17;99873.28;5035941;28;20210;-71
2022/01/23 09:50:51;;;;;;;21.47;16.03;;;;;;;4.93;91.31;99868.84;5036160;28;20637;-71
2022/01/23 09:53:21;;;;;;;24.03;17.50;;;;;;;5.02;90.99;99875.94;5036651;28;20272;-71
2022/01/23 09:55:49;;;;;;;19.63;16.27;;;;;;;4.92;90.39;99875.91;5035923;28;20286;-71
2022/01/23 09:58:15;;;;;;;20.73;17.27;;;;;;;4.89;90.64;99878.81;5035954;28;20187;-71
2022/01/23 10:00:42;;;;;;;21.10;16.50;;;;;;;5.00;90.50;99875.22;5036088;28;20228;-71
2022/01/23 10:03:08;;;;;;;22.30;17.13;;;;;;;5.12;90.09;99879.38;5036564;28;20194;-71
2022/01/23 10:05:35;;;;;;;19.83;16.80;;;;;;;5.20;90.04;99877.69;5036053;28;20292;-70
2022/01/23 10:08:01;;;;;;;20.37;16.83;;;;;;;5.42;89.07;99872.09;5035657;28;20594;-71
2022/01/23 10:10:31;;;;;;;20.43;16.80;;;;;;;5.28;88.13;99875.19;5035666;28;20230;-71
2022/01/23 10:13:01;;;;;;;19.20;16.77;;;;;;;5.05;89.23;99879.09;5036098;28;20493;-71
2022/01/23 10:15:31;;;;;;;18.40;15.97;;;;;;;5.12;88.90;99874.09;5039888;28;20194;-71
2022/01/23 10:17:58;;;;;;;19.57;16.00;;;;;;;5.34;87.58;99877.25;5039910;28;20529;-71
2022/01/23 10:20:25;;;;;;;23.87;16.97;;;;;;;5.50;87.60;99877.50;5039826;28;20237;-71
2022/01/23 10:22:54;;;;;;;21.40;16.77;;;;;;;5.36;86.46;99872.69;5039618;28;20273;-71
2022/01/23 10:25:24;;;;;;;23.47;17.73;;;;;;;5.14;88.34;99880.06;5039615;28;20273;-70
2022/01/23 10:27:53;;;;;;;21.53;17.47;;;;;;;5.20;89.88;99875.06;5039810;28;20194;-70
2022/01/23 10:30:20;;;;;;;22.77;18.03;;;;;;;5.24;90.16;99884.34;5039497;28;20221;-71
2022/01/23 10:33:10;;;;;;;24.97;17.67;;;;;;;5.24;89.22;99873.00;5039412;28;20202;-71
2022/01/23 10:36:03;;;;;;;21.03;17.50;;;;;;;5.30;89.71;99881.13;5039508;28;20190;-71
2022/01/23 10:38:45;;;;;;;23.37;17.77;;;;;;;5.40;88.01;99878.50;5039415;28;20186;-70
2022/01/23 10:41:42;;;;;;;21.90;17.30;;;;;;;5.22;88.19;99880.19;5039432;28;20277;-70
2022/01/23 10:50:09;;;;;;;20.73;16.30;;;;;;;5.47;88.31;99874.31;5014564;28;20275;-71
2022/01/23 10:52:40;;;;;;;21.20;15.93;;;;;;;5.64;86.80;99863.00;5039007;28;20197;-70
2022/01/23 10:55:12;;;;;;;19.33;16.13;;;;;;;5.87;87.43;99867.81;5038660;28;20225;-71
2022/01/23 10:57:44;;;;;;;18.67;15.47;;;;;;;5.54;85.31;99863.06;5038895;28;20202;-71
2022/01/23 11:00:21;;;;;;;18.20;15.07;;;;;;;5.72;85.73;99856.06;5038594;28;20230;-68
2022/01/23 11:02:47;;;;;;;18.00;14.10;;;;;;;5.76;84.36;99868.00;5039000;28;20284;-68
2022/01/23 11:05:15;;;;;;;18.97;15.10;;;;;;;5.58;85.53;99867.06;5038769;28;20186;-68
2022/01/23 11:07:44;;;;;;;17.17;13.60;;;;;;;5.44;85.28;99862.25;5038600;28;20547;-69
2022/01/23 11:10:19;;;;;;;16.27;13.10;;;;;;;5.40;85.19;99860.88;5038780;28;20241;-68
2022/01/23 11:18:38;;;;;;;17.43;12.30;;;;;;;5.81;83.82;99862.28;5038249;28;20184;-69
2022/01/23 11:21:16;;;;;;;10.97;9.83;;;;;;;5.91;81.39;99863.06;5037863;28;20221;-69
2022/01/23 11:23:42;;;;;;;12.70;10.30;;;;;;;5.95;80.93;99870.56;5037959;28;20186;-68
2022/01/23 11:26:12;;;;;;;12.50;10.57;;;;;;;6.12;79.87;99855.75;5037045;28;20190;-68
2022/01/23 11:28:45;;;;;;;13.67;11.17;;;;;;;6.02;79.48;99849.69;5038426;28;20201;-68
2022/01/23 11:31:18;;;;;;;12.47;10.80;;;;;;;6.01;79.97;99856.78;5038213;28;20225;-67
2022/01/23 11:33:46;;;;;;;13.60;11.37;;;;;;;5.77;80.83;99858.25;5037966;28;20207;-68
2022/01/23 11:36:13;;;;;;;13.57;11.60;;;;;;;6.00;82.28;99849.84;5038274;28;20199;-69
2022/01/23 11:38:43;;;;;;;13.60;10.87;;;;;;;5.98;79.90;99853.63;5038091;28;20581;-69
2022/01/23 11:55:30;;;;;;;12.77;9.90;;;;;;;5.82;79.29;99827.84;5038027;28;20248;-70
2022/01/23 11:57:58;;;;;;;11.50;10.23;;;;;;;5.76;80.14;99824.91;5037363;28;20197;-70
2022/01/23 12:00:32;;;;;;;12.80;11.17;;;;;;;5.78;81.11;99825.59;5037501;28;20249;-68
2022/01/23 12:03:14;;;;;;;12.57;10.33;;;;;;;5.71;81.25;99822.72;5037557;28;20212;-68
2022/01/23 12:05:44;;;;;;;14.30;11.03;;;;;;;5.83;80.02;99828.69;5037531;28;20194;-68
2022/01/23 12:08:35;;;;;;;12.70;9.63;;;;;;;5.91;79.10;99823.47;5037523;28;20248;-68
2022/01/23 12:16:22;;;;;;;12.63;10.83;;;;;;;6.03;79.31;99825.78;5037324;28;20210;-73
2022/01/23 12:17:01;;;;;;;14.90;11.90;;;;;;;6.45;77.46;99815.50;5037212;28;20596;-69
2022/01/23 12:19:31;;;;;;;13.33;11.37;;;;;;;6.02;79.50;99816.19;5036917;28;20607;-69
2022/01/23 12:22:00;;;;;;;12.57;10.50;;;;;;;6.03;78.79;99814.41;5037123;28;20249;-69
2022/01/23 12:24:27;;;;;;;11.30;9.83;;;;;;;6.11;78.05;99812.66;5037324;28;20190;-69
2022/01/23 12:27:18;;;;;;;10.23;9.13;;;;;;;6.50;75.61;99815.88;5037093;28;20229;-67
2022/01/23 12:29:44;;;;;;;11.27;8.47;;;;;;;6.53;73.62;99815.59;5037074;28;20197;-71
2022/01/23 12:32:26;;;;;;;11.57;8.50;;;;;;;6.49;73.68;99816.88;5037504;28;20204;-71
2022/01/23 12:34:56;;;;;;;11.23;10.03;;;;;;;6.29;76.42;99807.44;5036724;28;20516;-71
2022/01/23 12:37:23;;;;;;;13.70;11.73;;;;;;;6.01;77.81;99811.91;5036658;28;20261;-66
2022/01/23 12:40:20;;;;;;;15.80;11.97;;;;;;;5.86;80.50;99797.53;5036896;28;20194;-67
2022/01/23 12:43:06;;;;;;;12.93;11.33;;;;;;;5.76;79.75;99791.44;5036565;28;20187;-67
2022/01/23 12:46:06;;;;;;;12.93;10.03;;;;;;;5.65;78.94;99799.53;5036366;28;20635;-66
2022/01/23 12:48:36;;;;;;;9.83;8.63;;;;;;;5.53;79.01;99795.44;5036786;28;20222;-66
2022/01/23 12:51:09;;;;;;;15.03;10.97;;;;;;;5.64;79.24;99797.03;5036189;28;20644;-66
2022/01/23 12:53:59;;;;;;;14.03;12.03;;;;;;;5.59;80.38;99800.13;5036553;28;20194;-66
2022/01/23 12:56:41;;;;;;;16.47;13.30;;;;;;;5.34;82.06;99803.41;5035980;28;20206;-66
2022/01/23 12:59:10;;;;;;;17.03;12.57;;;;;;;5.35;82.13;99806.88;5036475;28;20194;-66
2022/01/23 13:01:38;;;;;;;15.03;12.77;;;;;;;5.43;82.49;99804.38;5036200;28;20230;-67
2022/01/23 13:04:07;;;;;;;15.53;11.73;;;;;;;5.35;80.88;99804.25;5035788;28;20227;-66
2022/01/23 13:06:37;;;;;;;14.63;11.37;;;;;;;5.35;81.49;99799.81;5036117;28;20194;-66
2022/01/23 13:09:26;;;;;;;15.00;10.90;;;;;;;5.40;80.85;99805.50;5035986;28;20500;-67
2022/01/23 13:12:07;;;;;;;13.30;11.23;;;;;;;5.64;81.37;99807.59;5035901;28;20299;-66
2022/01/23 13:14:42;;;;;;;14.53;10.80;;;;;;;5.78;79.53;99799.19;5036024;28;20272;-71
2022/01/23 13:30:55;;;;;;;2.10;1.90;;;;;;;5.79;66.01;99777.13;5035675;28;20628;-71
2022/01/23 13:33:24;;;;;;;2.70;2.30;;;;;;;5.94;65.32;99773.03;5035887;28;20585;-71
2022/01/23 13:35:53;;;;;;;2.67;2.27;;;;;;;5.79;64.29;99777.94;5035633;28;20222;-71
2022/01/23 13:38:22;;;;;;;3.87;2.93;;;;;;;5.74;64.82;99776.75;5035952;28;20217;-71
2022/01/23 13:40:58;;;;;;;4.50;4.00;;;;;;;5.65;67.60;99772.34;5035969;28;20230;-71
2022/01/23 13:52:00;;;;;;;3.23;2.80;;;;;;;5.95;66.31;99770.25;4978861;28;20235;-71
2022/01/23 14:00:03;;;;;;;5.70;3.90;;;;;;;5.73;68.05;99761.88;5039681;28;20223;-71
2022/01/23 14:02:32;;;;;;;4.30;3.33;;;;;;;5.74;67.90;99767.00;5039634;28;20197;-71
2022/01/23 14:05:04;;;;;;;2.83;2.40;;;;;;;5.68;67.01;99766.75;5039735;28;20268;-71
2022/01/23 14:07:32;;;;;;;4.13;2.50;;;;;;;5.77;65.88;99760.59;5039643;28;20232;-71
2022/01/23 14:10:11;;;;;;;3.63;2.43;;;;;;;6.02;63.83;99767.84;5039637;28;20244;-71
2022/01/23 14:12:38;;;;;;;3.63;2.23;;;;;;;5.80;64.94;99763.81;5039782;28;20199;-66
2022/01/23 14:15:13;;;;;;;4.50;2.27;;;;;;;6.07;63.35;99761.13;5039633;28;20276;-69
2022/01/23 14:17:40;;;;;;;2.37;2.10;;;;;;;5.98;64.31;99764.66;5039590;28;20190;-66
2022/01/23 14:20:12;;;;;;;2.90;2.23;;;;;;;5.87;64.72;99764.03;5038970;28;20280;-67
2022/01/23 14:22:41;;;;;;;2.47;2.10;;;;;;;6.01;62.39;99758.28;5038972;28;20585;-66